createdAt,value
2017-11-18T00:00:36.085Z,6.40
2017-11-18T00:01:36.556Z,5.80
2017-11-18T00:02:35.977Z,6.70
2017-11-18T00:03:36.426Z,6.30
2017-11-18T00:04:36.203Z,6.20
2017-11-18T00:05:36.641Z,6.00
2017-11-18T00:06:36.067Z,6.50
2017-11-18T00:07:35.962Z,6.20
2017-11-18T00:08:36.510Z,6.70
2017-11-18T00:09:35.921Z,6.30
2017-11-18T00:10:36.472Z,7.00
2017-11-18T00:11:36.010Z,6.10
2017-11-18T00:12:35.921Z,6.20
2017-11-18T00:13:38.157Z,5.80
2017-11-18T00:14:36.642Z,6.80
2017-11-18T00:15:35.994Z,6.40
2017-11-18T00:16:36.528Z,6.90
2017-11-18T00:17:36.010Z,6.50
2017-11-18T00:18:36.494Z,6.20
2017-11-18T00:19:35.884Z,6.30
2017-11-18T00:20:35.895Z,6.10
2017-11-18T00:21:36.884Z,6.80
2017-11-18T00:22:36.337Z,6.50
2017-11-18T00:23:36.164Z,6.40
2017-11-18T00:24:36.640Z,6.30
2017-11-18T00:25:36.070Z,5.80
2017-11-18T00:26:36.849Z,6.30
2017-11-18T00:27:36.204Z,6.10
2017-11-18T00:28:36.638Z,6.30
2017-11-18T00:29:36.668Z,6.60
2017-11-18T00:30:36.112Z,5.60
2017-11-18T00:31:36.626Z,6.00
2017-11-18T00:32:36.114Z,6.40
2017-11-18T00:33:36.550Z,6.20
2017-11-18T00:34:35.995Z,6.90
2017-11-18T00:35:35.745Z,6.30
2017-11-18T00:36:36.189Z,6.00
2017-11-18T00:37:37.049Z,6.30
2017-11-18T00:38:36.528Z,6.50
2017-11-18T00:39:35.963Z,6.70
2017-11-18T00:40:36.373Z,6.50
2017-11-18T00:41:35.876Z,5.70
2017-11-18T00:42:36.366Z,6.70
2017-11-18T00:43:35.846Z,5.70
2017-11-18T00:44:36.310Z,6.40
2017-11-18T00:45:35.816Z,6.00
2017-11-18T00:46:36.058Z,6.00
2017-11-18T00:47:36.951Z,6.00
2017-11-18T00:48:36.339Z,5.20
2017-11-18T00:49:35.788Z,5.50
2017-11-18T00:50:36.181Z,4.70
2017-11-18T00:51:36.627Z,5.60
2017-11-18T00:52:36.042Z,5.50
2017-11-18T00:53:37.110Z,5.70
2017-11-18T00:54:36.181Z,5.80
2017-11-18T00:55:36.605Z,5.70
2017-11-18T00:56:36.024Z,5.80
2017-11-18T00:57:36.445Z,5.60
2017-11-18T00:58:35.841Z,5.60
2017-11-18T00:59:36.328Z,5.30
2017-11-18T01:00:35.662Z,5.70
2017-11-18T01:01:36.099Z,4.50
2017-11-18T01:02:36.493Z,4.80
2017-11-18T01:03:35.900Z,5.10
2017-11-18T01:04:36.371Z,5.40
2017-11-18T01:05:35.795Z,5.30
2017-11-18T01:06:36.151Z,4.70
2017-11-18T01:07:35.967Z,4.50
2017-11-18T01:08:37.040Z,4.50
2017-11-18T01:09:36.483Z,5.20
2017-11-18T01:10:35.915Z,5.10
2017-11-18T01:11:36.318Z,4.30
2017-11-18T01:12:35.720Z,4.60
2017-11-18T01:13:36.118Z,4.20
2017-11-18T01:14:36.580Z,5.10
2017-11-18T01:15:35.666Z,4.20
2017-11-18T01:16:35.996Z,4.30
2017-11-18T01:17:36.349Z,4.20
2017-11-18T01:18:36.419Z,4.20
2017-11-18T01:19:36.012Z,4.80
2017-11-18T01:20:36.585Z,4.30
2017-11-18T01:21:36.019Z,3.90
2017-11-18T01:22:36.369Z,3.90
2017-11-18T01:23:35.761Z,4.40
2017-11-18T01:24:36.251Z,4.20
2017-11-18T01:25:36.934Z,4.60
2017-11-18T01:26:36.304Z,3.70
2017-11-18T01:27:35.674Z,3.60
2017-11-18T01:28:36.021Z,3.70
2017-11-18T01:29:35.708Z,4.30
2017-11-18T01:30:36.226Z,3.30
2017-11-18T01:31:35.707Z,3.50
2017-11-18T01:32:36.543Z,3.80
2017-11-18T01:33:35.938Z,3.30
2017-11-18T01:34:36.333Z,3.60
2017-11-18T01:35:36.006Z,4.10
2017-11-18T01:36:36.533Z,4.10
2017-11-18T01:37:35.958Z,3.90
2017-11-18T01:38:36.370Z,3.60
2017-11-18T01:39:35.712Z,3.60
2017-11-18T01:40:36.745Z,3.50
2017-11-18T01:41:36.084Z,3.60
2017-11-18T01:42:36.223Z,3.70
2017-11-18T01:43:36.923Z,3.90
2017-11-18T01:44:36.269Z,3.70
2017-11-18T01:45:35.700Z,3.30
2017-11-18T01:46:35.919Z,3.20
2017-11-18T01:47:36.313Z,3.10
2017-11-18T01:49:02.929Z,3.40
2017-11-18T01:49:33.390Z,3.50
2017-11-18T01:50:33.685Z,3.40
2017-11-18T01:51:34.223Z,3.40
2017-11-18T01:52:33.633Z,3.90
2017-11-18T01:53:34.180Z,3.90
2017-11-18T01:54:33.532Z,3.60
2017-11-18T01:55:33.889Z,3.80
2017-11-18T01:56:34.243Z,3.10
2017-11-18T01:57:33.649Z,3.30
2017-11-18T01:58:34.016Z,3.40
2017-11-18T01:59:33.362Z,3.70
2017-11-18T02:00:33.756Z,3.50
2017-11-18T02:01:34.039Z,3.60
2017-11-18T02:02:33.426Z,3.20
2017-11-18T02:03:33.893Z,3.40
2017-11-18T02:04:34.236Z,3.50
2017-11-18T02:05:33.620Z,3.60
2017-11-18T02:06:33.962Z,3.70
2017-11-18T02:07:33.399Z,3.20
2017-11-18T02:08:34.235Z,3.70
2017-11-18T02:09:33.573Z,3.80
2017-11-18T02:10:34.096Z,3.70
2017-11-18T02:11:33.419Z,3.60
2017-11-18T02:12:34.033Z,3.20
2017-11-18T02:13:33.378Z,3.40
2017-11-18T02:14:34.166Z,3.30
2017-11-18T02:15:34.205Z,3.70
2017-11-18T02:16:33.638Z,3.60
2017-11-18T02:17:34.003Z,3.20
2017-11-18T02:18:33.404Z,3.90
2017-11-18T02:19:33.703Z,3.40
2017-11-18T02:20:34.077Z,3.50
2017-11-18T02:21:33.522Z,4.10
2017-11-18T02:22:33.923Z,3.70
2017-11-18T02:23:34.298Z,3.40
2017-11-18T02:24:33.645Z,3.50
2017-11-18T02:25:34.092Z,3.80
2017-11-18T02:26:33.426Z,3.50
2017-11-18T02:27:33.728Z,3.40
2017-11-18T02:28:33.976Z,3.20
2017-11-18T02:29:33.357Z,3.50
2017-11-18T02:30:33.679Z,3.80
2017-11-18T02:31:34.038Z,3.80
2017-11-18T02:32:33.427Z,3.20
2017-11-18T02:33:34.346Z,3.60
2017-11-18T02:34:34.019Z,3.50
2017-11-18T02:35:33.311Z,3.10
2017-11-18T02:36:33.709Z,4.10
2017-11-18T02:37:34.112Z,3.90
2017-11-18T02:38:33.391Z,3.40
2017-11-18T02:39:34.021Z,3.30
2017-11-18T02:40:33.322Z,3.70
2017-11-18T02:41:33.828Z,3.60
2017-11-18T02:42:34.341Z,3.80
2017-11-18T02:43:33.891Z,3.40
2017-11-18T02:44:34.224Z,3.40
2017-11-18T02:45:33.519Z,3.80
2017-11-18T02:46:33.854Z,3.50
2017-11-18T02:47:34.172Z,3.30
2017-11-18T02:48:33.545Z,4.00
2017-11-18T02:49:33.666Z,4.00
2017-11-18T02:50:34.109Z,3.90
2017-11-18T02:51:33.426Z,3.80
2017-11-18T02:52:33.764Z,3.70
2017-11-18T02:53:34.169Z,3.60
2017-11-18T02:54:34.109Z,4.30
2017-11-18T02:55:33.888Z,4.20
2017-11-18T02:56:33.442Z,3.60
2017-11-18T02:57:34.262Z,4.00
2017-11-18T02:58:33.959Z,4.00
2017-11-18T02:59:33.405Z,3.70
2017-11-18T03:00:33.912Z,4.10
2017-11-18T03:01:34.645Z,3.70
2017-11-18T03:02:33.920Z,3.60
2017-11-18T03:03:34.240Z,3.70
2017-11-18T03:04:33.511Z,3.50
2017-11-18T03:05:33.947Z,3.70
2017-11-18T03:06:34.313Z,3.90
2017-11-18T03:07:33.683Z,3.90
2017-11-18T03:08:34.004Z,4.10
2017-11-18T03:09:33.381Z,4.10
2017-11-18T03:10:34.124Z,3.90
2017-11-18T03:11:33.482Z,3.80
2017-11-18T03:12:33.825Z,4.30
2017-11-18T03:13:33.348Z,4.20
2017-11-18T03:14:33.659Z,4.30
2017-11-18T03:15:33.990Z,4.00
2017-11-18T03:16:33.584Z,3.90
2017-11-18T03:17:33.464Z,3.60
2017-11-18T03:18:33.815Z,4.30
2017-11-18T03:19:34.124Z,3.60
2017-11-18T03:20:33.715Z,4.30
2017-11-18T03:21:34.005Z,4.00
2017-11-18T03:22:33.352Z,3.60
2017-11-18T03:23:33.349Z,3.80
2017-11-18T03:24:34.355Z,4.80
2017-11-18T03:25:33.679Z,3.70
2017-11-18T03:26:34.044Z,4.10
2017-11-18T03:27:33.516Z,4.00
2017-11-18T03:28:33.745Z,4.40
2017-11-18T03:29:34.044Z,4.10
2017-11-18T03:30:33.449Z,4.40
2017-11-18T03:31:33.845Z,4.30
2017-11-18T03:32:34.207Z,3.90
2017-11-18T03:33:33.517Z,4.10
2017-11-18T03:34:33.846Z,4.40
2017-11-18T03:35:34.472Z,4.30
2017-11-18T03:36:33.785Z,3.80
2017-11-18T03:37:34.121Z,4.10
2017-11-18T03:38:33.473Z,4.10
2017-11-18T03:39:33.746Z,4.40
2017-11-18T03:40:34.102Z,4.50
2017-11-18T03:41:34.301Z,3.80
2017-11-18T03:42:33.802Z,4.10
2017-11-18T03:43:34.176Z,4.40
2017-11-18T03:44:33.573Z,3.70
2017-11-18T03:45:33.840Z,4.40
2017-11-18T03:46:33.952Z,4.40
2017-11-18T03:47:34.282Z,4.10
2017-11-18T03:48:34.113Z,4.40
2017-11-18T03:49:33.644Z,4.20
2017-11-18T03:50:34.128Z,3.80
2017-11-18T03:51:33.496Z,4.10
2017-11-18T03:52:33.745Z,4.20
2017-11-18T03:53:34.111Z,4.20
2017-11-18T03:54:33.475Z,4.00
2017-11-18T03:55:33.421Z,4.40
2017-11-18T03:56:34.049Z,4.40
2017-11-18T03:57:33.291Z,4.20
2017-11-18T03:58:33.666Z,3.90
2017-11-18T03:59:34.016Z,4.20
2017-11-18T04:00:33.362Z,3.90
2017-11-18T04:01:34.009Z,4.30
2017-11-18T04:02:33.496Z,4.40
2017-11-18T04:03:33.856Z,4.10
2017-11-18T04:04:33.812Z,4.20
2017-11-18T04:05:34.146Z,4.40
2017-11-18T04:06:33.692Z,4.10
2017-11-18T04:07:34.165Z,4.10
2017-11-18T04:08:33.540Z,4.00
2017-11-18T04:09:33.889Z,4.40
2017-11-18T04:10:34.234Z,4.40
2017-11-18T04:11:34.004Z,4.40
2017-11-18T04:12:33.469Z,4.80
2017-11-18T04:13:33.722Z,3.50
2017-11-18T04:14:34.062Z,3.90
2017-11-18T04:15:33.615Z,4.70
2017-11-18T04:16:34.065Z,3.90
2017-11-18T04:17:33.393Z,4.20
2017-11-18T04:18:33.857Z,4.40
2017-11-18T04:19:33.836Z,4.20
2017-11-18T04:20:34.203Z,3.90
2017-11-18T04:21:33.602Z,3.90
2017-11-18T04:22:33.950Z,4.20
2017-11-18T04:23:33.314Z,4.30
2017-11-18T04:24:33.749Z,4.20
2017-11-18T04:25:33.807Z,4.50
2017-11-18T04:26:34.485Z,3.50
2017-11-18T04:27:33.783Z,3.70
2017-11-18T04:28:34.060Z,4.30
2017-11-18T04:29:34.081Z,4.40
2017-11-18T04:30:33.359Z,3.80
2017-11-18T04:31:33.720Z,3.80
2017-11-18T04:32:34.554Z,4.10
2017-11-18T04:33:34.002Z,3.90
2017-11-18T04:34:33.359Z,4.10
2017-11-18T04:35:33.893Z,3.80
2017-11-18T04:36:34.078Z,4.10
2017-11-18T04:37:33.552Z,4.20
2017-11-18T04:38:34.160Z,4.40
2017-11-18T04:39:34.084Z,4.80
2017-11-18T04:40:33.473Z,4.70
2017-11-18T04:41:33.870Z,4.10
2017-11-18T04:42:34.074Z,4.60
2017-11-18T04:43:33.962Z,4.70
2017-11-18T04:44:33.268Z,4.40
2017-11-18T04:45:33.608Z,4.60
2017-11-18T04:46:33.913Z,4.20
2017-11-18T04:47:33.440Z,4.50
2017-11-18T04:48:33.451Z,4.10
2017-11-18T04:49:33.726Z,3.90
2017-11-18T04:50:33.801Z,4.20
2017-11-18T04:51:34.125Z,4.40
2017-11-18T04:52:34.151Z,4.60
2017-11-18T04:53:34.087Z,4.80
2017-11-18T04:54:33.448Z,4.70
2017-11-18T04:55:33.793Z,4.50
2017-11-18T04:56:34.169Z,4.30
2017-11-18T04:57:33.508Z,4.50
2017-11-18T04:58:34.212Z,4.10
2017-11-18T04:59:33.725Z,4.50
2017-11-18T05:00:33.491Z,4.40
2017-11-18T05:01:33.828Z,3.90
2017-11-18T05:02:34.197Z,4.00
2017-11-18T05:03:34.081Z,4.60
2017-11-18T05:04:33.501Z,4.50
2017-11-18T05:05:33.885Z,4.70
2017-11-18T05:06:33.806Z,4.30
2017-11-18T05:07:34.478Z,4.30
2017-11-18T05:08:33.887Z,4.70
2017-11-18T05:09:33.395Z,4.70
2017-11-18T05:10:33.831Z,4.10
2017-11-18T05:11:33.448Z,4.40
2017-11-18T05:12:33.832Z,4.40
2017-11-18T05:13:34.206Z,4.50
2017-11-18T05:14:34.068Z,4.00
2017-11-18T05:15:33.720Z,5.50
2017-11-18T05:16:34.206Z,4.90
2017-11-18T05:17:33.370Z,4.90
2017-11-18T05:18:33.856Z,4.30
2017-11-18T05:19:33.477Z,4.50
2017-11-18T05:20:33.940Z,4.30
2017-11-18T05:21:33.292Z,4.40
2017-11-18T05:22:33.664Z,4.00
2017-11-18T05:23:34.442Z,4.50
2017-11-18T05:24:33.996Z,4.40
2017-11-18T05:25:33.422Z,4.60
2017-11-18T05:26:33.887Z,4.40
2017-11-18T05:27:33.911Z,4.20
2017-11-18T05:28:33.332Z,4.40
2017-11-18T05:29:34.182Z,5.10
2017-11-18T05:30:33.625Z,4.10
2017-11-18T05:31:33.707Z,5.00
2017-11-18T05:32:34.046Z,4.40
2017-11-18T05:33:47.442Z,4.00
2017-11-18T05:34:48.075Z,4.80
2017-11-18T05:35:47.879Z,4.60
2017-11-18T05:36:48.381Z,4.50
2017-11-18T05:37:47.832Z,4.50
2017-11-18T05:38:48.248Z,5.50
2017-11-18T05:39:47.952Z,5.10
2017-11-18T05:40:47.661Z,4.50
2017-11-18T05:41:48.181Z,4.60
2017-11-18T05:42:47.740Z,4.60
2017-11-18T05:43:48.150Z,4.90
2017-11-18T05:44:47.587Z,4.50
2017-11-18T05:45:48.068Z,4.40
2017-11-18T05:46:47.458Z,4.70
2017-11-18T05:47:47.926Z,4.70
2017-11-18T05:48:48.326Z,4.50
2017-11-18T05:49:47.757Z,4.20
2017-11-18T05:50:47.882Z,4.80
2017-11-18T05:51:48.584Z,4.40
2017-11-18T05:52:48.189Z,4.70
2017-11-18T05:53:47.645Z,4.40
2017-11-18T05:54:48.254Z,4.80
2017-11-18T05:55:48.239Z,4.90
2017-11-18T05:56:47.731Z,5.10
2017-11-18T05:57:47.469Z,4.60
2017-11-18T05:58:47.716Z,4.50
2017-11-18T05:59:48.462Z,4.70
2017-11-18T06:00:47.922Z,4.40
2017-11-18T06:01:48.284Z,4.70
2017-11-18T06:02:47.806Z,4.90
2017-11-18T06:03:48.270Z,5.10
2017-11-18T06:04:48.083Z,5.70
2017-11-18T06:05:48.066Z,5.10
2017-11-18T06:06:47.543Z,5.10
2017-11-18T06:07:48.055Z,5.10
2017-11-18T06:08:47.596Z,5.30
2017-11-18T06:09:48.075Z,5.00
2017-11-18T06:10:47.657Z,4.70
2017-11-18T06:11:48.257Z,4.20
2017-11-18T06:12:47.793Z,4.40
2017-11-18T06:13:48.258Z,4.20
2017-11-18T06:14:47.839Z,4.70
2017-11-18T06:15:48.328Z,4.50
2017-11-18T06:16:47.908Z,4.70
2017-11-18T06:17:48.530Z,4.60
2017-11-18T06:18:48.322Z,5.00
2017-11-18T06:19:48.132Z,5.20
2017-11-18T06:20:47.844Z,5.30
2017-11-18T06:21:48.436Z,5.20
2017-11-18T06:22:47.881Z,4.50
2017-11-18T06:23:47.950Z,4.70
2017-11-18T06:24:47.802Z,4.60
2017-11-18T06:25:48.366Z,5.10
2017-11-18T06:26:47.810Z,5.40
2017-11-18T06:27:48.316Z,5.00
2017-11-18T06:28:47.619Z,4.60
2017-11-18T06:29:47.854Z,5.00
2017-11-18T06:30:48.254Z,5.80
2017-11-18T06:31:47.737Z,5.20
2017-11-18T06:32:49.385Z,5.50
2017-11-18T06:33:48.123Z,5.20
2017-11-18T06:34:47.716Z,4.70
2017-11-18T06:35:48.249Z,4.90
2017-11-18T06:36:48.248Z,5.40
2017-11-18T06:37:47.783Z,5.20
2017-11-18T06:38:47.978Z,4.90
2017-11-18T06:39:48.166Z,4.80
2017-11-18T06:40:48.322Z,5.10
2017-11-18T06:41:48.246Z,4.40
2017-11-18T06:42:47.969Z,5.20
2017-11-18T06:43:47.637Z,4.70
2017-11-18T06:44:48.383Z,4.70
2017-11-18T06:45:47.888Z,5.00
2017-11-18T06:46:47.642Z,4.80
2017-11-18T06:47:48.011Z,4.80
2017-11-18T06:48:47.730Z,4.90
2017-11-18T06:49:48.182Z,4.80
2017-11-18T06:50:47.914Z,5.90
2017-11-18T06:51:48.905Z,5.20
2017-11-18T06:52:47.759Z,5.30
2017-11-18T06:53:48.281Z,5.60
2017-11-18T06:54:47.948Z,5.00
2017-11-18T06:55:47.597Z,5.20
2017-11-18T06:56:48.521Z,4.80
2017-11-18T06:57:48.094Z,4.60
2017-11-18T06:58:47.610Z,5.70
2017-11-18T06:59:48.368Z,4.60
2017-11-18T07:00:47.961Z,5.30
2017-11-18T07:01:48.286Z,5.30
2017-11-18T07:02:48.483Z,5.10
2017-11-18T07:03:48.321Z,5.40
2017-11-18T07:04:47.920Z,5.90
2017-11-18T07:05:48.059Z,5.40
2017-11-18T07:06:47.670Z,5.30
2017-11-18T07:07:48.189Z,4.90
2017-11-18T07:08:48.014Z,5.40
2017-11-18T07:09:47.936Z,7.90
2017-11-18T07:10:48.526Z,5.90
2017-11-18T07:11:48.064Z,5.00
2017-11-18T07:12:48.458Z,5.70
2017-11-18T07:13:48.027Z,5.90
2017-11-18T07:14:48.015Z,5.30
2017-11-18T07:15:47.652Z,5.40
2017-11-18T07:16:48.119Z,5.00
2017-11-18T07:17:48.523Z,5.30
2017-11-18T07:18:48.195Z,5.40
2017-11-18T07:19:47.785Z,5.60
2017-11-18T07:20:48.345Z,4.60
2017-11-18T07:21:48.450Z,5.00
2017-11-18T07:22:47.934Z,5.70
2017-11-18T07:23:47.497Z,5.00
2017-11-18T07:24:48.774Z,4.90
2017-11-18T07:25:47.812Z,5.40
2017-11-18T07:26:48.305Z,5.30
2017-11-18T07:27:47.910Z,5.50
2017-11-18T07:28:48.495Z,5.80
2017-11-18T07:29:48.039Z,5.50
2017-11-18T07:30:47.694Z,5.90
2017-11-18T07:31:48.293Z,5.10
2017-11-18T07:32:47.866Z,4.50
2017-11-18T07:33:48.531Z,5.40
2017-11-18T07:34:48.249Z,4.90
2017-11-18T07:35:47.944Z,5.60
2017-11-18T07:36:47.711Z,5.60
2017-11-18T07:37:48.275Z,5.60
2017-11-18T07:38:49.056Z,4.40
2017-11-18T07:39:47.713Z,5.50
2017-11-18T07:40:47.928Z,5.20
2017-11-18T07:41:48.360Z,5.40
2017-11-18T07:42:48.685Z,5.50
2017-11-18T07:43:48.814Z,4.90
2017-11-18T07:44:48.234Z,5.10
2017-11-18T07:45:48.540Z,5.00
2017-11-18T07:46:47.840Z,4.50
2017-11-18T07:47:48.411Z,5.20
2017-11-18T07:48:48.029Z,5.20
2017-11-18T07:49:47.643Z,5.20
2017-11-18T07:50:48.618Z,4.90
2017-11-18T07:51:48.144Z,5.20
2017-11-18T07:52:47.882Z,4.90
2017-11-18T07:53:47.945Z,5.30
2017-11-18T07:54:47.493Z,4.90
2017-11-18T07:55:48.281Z,5.50
2017-11-18T07:56:48.074Z,4.90
2017-11-18T07:57:47.918Z,4.00
2017-11-18T07:58:47.845Z,4.40
2017-11-18T07:59:48.509Z,4.20
2017-11-18T08:00:47.821Z,5.20
2017-11-18T08:01:48.652Z,4.40
2017-11-18T08:02:48.370Z,4.80
2017-11-18T08:03:48.173Z,4.90
2017-11-18T08:04:47.870Z,5.20
2017-11-18T08:05:48.509Z,4.30
2017-11-18T08:06:48.092Z,4.30
2017-11-18T08:07:47.781Z,4.70
2017-11-18T08:08:48.676Z,5.60
2017-11-18T08:09:48.366Z,3.90
2017-11-18T08:10:48.007Z,5.10
2017-11-18T08:11:47.545Z,4.20
2017-11-18T08:12:48.112Z,3.90
2017-11-18T08:13:48.388Z,3.70
2017-11-18T08:14:49.876Z,4.00
2017-11-18T08:15:48.559Z,4.80
2017-11-18T08:16:48.298Z,4.20
2017-11-18T08:17:49.018Z,4.70
2017-11-18T08:18:47.736Z,5.00
2017-11-18T08:19:48.488Z,4.80
2017-11-18T08:20:48.112Z,3.90
2017-11-18T08:21:48.304Z,5.10
2017-11-18T08:22:48.720Z,5.00
2017-11-18T08:23:47.580Z,4.00
2017-11-18T08:24:48.239Z,4.90
2017-11-18T08:25:49.437Z,5.20
2017-11-18T08:26:48.050Z,4.70
2017-11-18T08:27:52.098Z,5.40
2017-11-18T08:28:47.784Z,3.90
2017-11-18T08:29:48.389Z,4.00
2017-11-18T08:30:48.208Z,3.90
2017-11-18T08:31:48.302Z,4.70
2017-11-18T08:32:48.453Z,4.10
2017-11-18T08:33:49.094Z,4.20
2017-11-18T08:34:47.817Z,4.40
2017-11-18T08:35:47.714Z,4.90
2017-11-18T08:36:47.787Z,4.70
2017-11-18T08:37:47.721Z,3.80
2017-11-18T08:38:47.895Z,5.10
2017-11-18T08:39:48.042Z,4.80
2017-11-18T08:40:47.631Z,4.30
2017-11-18T08:41:48.187Z,4.30
2017-11-18T08:43:01.385Z,4.30
2017-11-18T08:43:51.127Z,4.00
2017-11-18T08:44:50.683Z,4.70
2017-11-18T08:45:50.727Z,4.20
2017-11-18T08:46:50.233Z,4.50
2017-11-18T08:47:53.911Z,3.70
2017-11-18T08:48:49.441Z,3.90
2017-11-18T08:49:50.503Z,5.80
2017-11-18T08:50:47.744Z,5.20
2017-11-18T08:51:50.851Z,4.50
2017-11-18T08:52:49.332Z,4.70
2017-11-18T08:53:49.688Z,4.70
2017-11-18T08:54:49.167Z,4.70
2017-11-18T08:55:49.247Z,2.90
2017-11-18T08:56:47.894Z,4.40
2017-11-18T08:57:48.838Z,4.70
2017-11-18T08:58:48.254Z,4.50
2017-11-18T08:59:48.453Z,3.70
2017-11-18T09:00:48.714Z,4.10
2017-11-18T09:01:48.333Z,4.30
2017-11-18T09:02:48.420Z,4.20
2017-11-18T09:03:48.706Z,4.40
2017-11-18T09:04:48.234Z,4.30
2017-11-18T09:05:48.362Z,3.70
2017-11-18T09:06:48.715Z,3.20
2017-11-18T09:07:47.652Z,4.30
2017-11-18T09:08:48.897Z,4.40
2017-11-18T09:09:48.448Z,4.50
2017-11-18T09:10:50.663Z,4.60
2017-11-18T09:11:48.586Z,4.50
2017-11-18T09:12:47.864Z,4.20
2017-11-18T09:13:48.293Z,4.60
2017-11-18T09:14:49.271Z,4.30
2017-11-18T09:15:48.100Z,4.30
2017-11-18T09:16:47.817Z,5.20
2017-11-18T09:17:48.041Z,5.80
2017-11-18T09:18:47.812Z,4.90
2017-11-18T09:19:48.570Z,3.60
2017-11-18T09:20:49.213Z,4.70
2017-11-18T09:21:48.523Z,5.00
2017-11-18T09:22:48.175Z,4.90
2017-11-18T09:23:48.519Z,4.70
2017-11-18T09:24:48.500Z,5.10
2017-11-18T09:25:50.729Z,4.70
2017-11-18T09:26:53.358Z,4.30
2017-11-18T09:27:52.193Z,4.50
2017-11-18T09:28:49.037Z,3.80
2017-11-18T09:29:47.908Z,4.00
2017-11-18T09:30:50.006Z,4.20
2017-11-18T09:31:50.057Z,4.20
2017-11-18T09:32:49.355Z,4.70
2017-11-18T09:33:48.134Z,4.10
2017-11-18T09:34:49.953Z,4.10
2017-11-18T09:35:47.779Z,4.80
2017-11-18T09:36:49.712Z,3.90
2017-11-18T09:37:48.047Z,4.10
2017-11-18T09:38:48.129Z,4.30
2017-11-18T09:39:48.138Z,4.50
2017-11-18T09:40:48.270Z,4.40
2017-11-18T09:41:47.957Z,4.00
2017-11-18T09:42:48.066Z,4.90
2017-11-18T09:43:47.902Z,4.50
2017-11-18T09:44:47.808Z,3.70
2017-11-18T09:45:47.748Z,4.10
2017-11-18T09:46:48.721Z,4.00
2017-11-18T09:47:47.856Z,4.50
2017-11-18T09:48:47.936Z,4.20
2017-11-18T09:49:48.872Z,4.10
2017-11-18T09:50:48.391Z,4.10
2017-11-18T09:51:48.485Z,4.50
2017-11-18T09:52:48.133Z,4.20
2017-11-18T09:53:48.352Z,4.70
2017-11-18T09:54:47.982Z,4.30
2017-11-18T09:55:47.924Z,4.00
2017-11-18T09:56:48.562Z,4.90
2017-11-18T09:57:48.890Z,4.90
2017-11-18T09:58:48.657Z,4.30
2017-11-18T09:59:48.615Z,3.90
2017-11-18T10:00:48.713Z,3.90
2017-11-18T10:01:48.372Z,4.10
2017-11-18T10:02:48.087Z,3.20
2017-11-18T10:03:47.683Z,3.90
2017-11-18T10:04:49.015Z,4.00
2017-11-18T10:05:47.862Z,4.60
2017-11-18T10:06:49.476Z,4.10
2017-11-18T10:07:48.673Z,4.00
2017-11-18T10:08:48.531Z,3.90
2017-11-18T10:09:49.132Z,3.80
2017-11-18T10:10:49.219Z,3.70
2017-11-18T10:11:47.912Z,3.10
2017-11-18T10:12:49.790Z,3.00
2017-11-18T10:13:47.979Z,3.80
2017-11-18T10:14:48.635Z,4.10
2017-11-18T10:15:48.336Z,4.30
2017-11-18T10:16:48.491Z,3.40
2017-11-18T10:17:49.612Z,3.80
2017-11-18T10:18:48.387Z,3.00
2017-11-18T10:19:49.504Z,3.60
2017-11-18T10:20:51.590Z,3.40
2017-11-18T10:21:48.985Z,4.80
2017-11-18T10:22:48.345Z,3.60
2017-11-18T10:23:48.258Z,3.80
2017-11-18T10:24:51.370Z,3.20
2017-11-18T10:25:49.451Z,3.90
2017-11-18T10:26:49.657Z,3.70
2017-11-18T10:27:48.488Z,4.20
2017-11-18T10:28:48.809Z,4.10
2017-11-18T10:29:47.840Z,3.70
2017-11-18T10:30:48.505Z,3.70
2017-11-18T10:31:55.853Z,3.50
2017-11-18T10:32:48.688Z,3.70
2017-11-18T10:33:47.949Z,4.80
2017-11-18T10:34:49.925Z,3.70
2017-11-18T10:35:48.700Z,3.60
2017-11-18T10:36:48.231Z,4.30
2017-11-18T10:37:48.116Z,4.70
2017-11-18T10:38:48.046Z,3.80
2017-11-18T10:39:48.767Z,3.90
2017-11-18T10:40:48.719Z,2.90
2017-11-18T10:41:48.676Z,2.50
2017-11-18T10:42:49.524Z,2.70
2017-11-18T10:43:48.415Z,2.80
2017-11-18T10:44:49.311Z,3.80
2017-11-18T10:45:50.262Z,4.30
2017-11-18T10:46:48.083Z,4.60
2017-11-18T10:47:47.860Z,3.40
2017-11-18T10:48:48.597Z,3.60
2017-11-18T10:49:48.445Z,4.40
2017-11-18T10:50:48.954Z,4.60
2017-11-18T10:51:48.798Z,3.50
2017-11-18T10:52:48.504Z,4.40
2017-11-18T10:53:48.418Z,4.20
2017-11-18T10:54:48.966Z,3.50
2017-11-18T10:55:48.740Z,3.90
2017-11-18T10:56:48.303Z,4.20
2017-11-18T10:57:48.034Z,3.60
2017-11-18T10:58:48.037Z,4.50
2017-11-18T10:59:49.277Z,3.80
2017-11-18T11:00:48.062Z,3.80
2017-11-18T11:01:48.773Z,4.20
2017-11-18T11:02:48.697Z,4.00
2017-11-18T11:03:48.887Z,4.40
2017-11-18T11:04:47.818Z,3.00
2017-11-18T11:05:48.481Z,4.10
2017-11-18T11:06:48.332Z,4.10
2017-11-18T11:07:48.261Z,4.30
2017-11-18T11:08:48.474Z,4.00
2017-11-18T11:09:48.360Z,4.10
2017-11-18T11:10:48.363Z,3.60
2017-11-18T11:11:48.822Z,3.90
2017-11-18T11:12:49.233Z,3.00
2017-11-18T11:13:48.152Z,3.10
2017-11-18T11:14:48.373Z,3.70
2017-11-18T11:15:48.396Z,4.10
2017-11-18T11:16:51.174Z,4.00
2017-11-18T11:17:49.111Z,3.70
2017-11-18T11:18:49.919Z,3.70
2017-11-18T11:19:48.571Z,3.90
2017-11-18T11:20:48.455Z,3.40
2017-11-18T11:21:48.294Z,4.00
2017-11-18T11:22:48.558Z,3.90
2017-11-18T11:23:48.430Z,3.20
2017-11-18T11:24:48.483Z,4.00
2017-11-18T11:25:48.479Z,4.20
2017-11-18T11:26:48.251Z,3.70
2017-11-18T11:27:48.199Z,5.20
2017-11-18T11:28:47.881Z,3.50
2017-11-18T11:29:49.725Z,3.10
2017-11-18T11:30:48.423Z,3.90
2017-11-18T11:31:48.334Z,4.10
2017-11-18T11:32:48.065Z,3.80
2017-11-18T11:33:47.904Z,4.50
2017-11-18T11:34:48.627Z,4.50
2017-11-18T11:35:48.353Z,4.90
2017-11-18T11:36:48.102Z,4.10
2017-11-18T11:37:47.918Z,3.10
2017-11-18T11:38:48.705Z,3.70
2017-11-18T11:39:48.487Z,3.50
2017-11-18T11:40:48.011Z,3.60
2017-11-18T11:41:48.290Z,3.60
2017-11-18T11:42:48.221Z,3.40
2017-11-18T11:43:48.456Z,3.00
2017-11-18T11:44:48.280Z,4.40
2017-11-18T11:45:48.198Z,3.20
2017-11-18T11:46:48.598Z,2.70
2017-11-18T11:47:48.689Z,3.00
2017-11-18T11:48:51.406Z,2.80
2017-11-18T11:50:48.803Z,3.60
2017-11-18T11:51:48.829Z,4.10
2017-11-18T11:52:48.651Z,3.90
2017-11-18T11:54:04.398Z,3.40
2017-11-18T11:54:48.152Z,3.70
2017-11-18T11:55:48.579Z,4.40
2017-11-18T11:56:48.324Z,3.80
2017-11-18T11:57:48.446Z,3.10
2017-11-18T11:58:48.553Z,3.50
2017-11-18T11:59:48.441Z,3.80
2017-11-18T12:00:48.692Z,3.50
2017-11-18T12:01:48.700Z,3.90
2017-11-18T12:02:48.555Z,3.60
2017-11-18T12:03:48.527Z,3.30
2017-11-18T12:04:49.469Z,2.40
2017-11-18T12:05:48.196Z,3.30
2017-11-18T12:06:48.053Z,3.30
2017-11-18T12:07:50.113Z,3.50
2017-11-18T12:08:48.522Z,2.60
2017-11-18T12:09:48.566Z,3.30
2017-11-18T12:10:48.474Z,3.50
2017-11-18T12:11:48.248Z,3.50
2017-11-18T12:12:49.961Z,2.60
2017-11-18T12:13:48.723Z,2.80
2017-11-18T12:14:49.127Z,2.60
2017-11-18T12:15:48.875Z,3.10
2017-11-18T12:16:48.700Z,2.90
2017-11-18T12:17:48.608Z,3.00
2017-11-18T12:18:48.966Z,3.50
2017-11-18T12:19:48.792Z,3.60
2017-11-18T12:20:48.780Z,4.10
2017-11-18T12:21:48.659Z,3.60
2017-11-18T12:22:49.121Z,3.60
2017-11-18T12:23:47.944Z,3.30
2017-11-18T12:24:48.187Z,3.10
2017-11-18T12:25:49.140Z,3.20
2017-11-18T12:26:48.096Z,3.00
2017-11-18T12:27:48.049Z,3.50
2017-11-18T12:28:48.834Z,3.50
2017-11-18T12:29:49.331Z,3.90
2017-11-18T12:30:48.265Z,3.70
2017-11-18T12:31:48.250Z,3.90
2017-11-18T12:32:49.327Z,4.20
2017-11-18T12:33:48.371Z,3.40
2017-11-18T12:34:48.051Z,3.90
2017-11-18T12:35:48.493Z,3.40
2017-11-18T12:36:48.316Z,4.10
2017-11-18T12:37:48.153Z,4.90
2017-11-18T12:38:48.125Z,4.30
2017-11-18T12:39:48.608Z,4.30
2017-11-18T12:40:48.612Z,3.20
2017-11-18T12:41:48.734Z,3.90
2017-11-18T12:42:48.621Z,4.20
2017-11-18T12:43:49.401Z,3.50
2017-11-18T12:44:49.050Z,4.40
2017-11-18T12:45:48.210Z,3.80
2017-11-18T12:46:48.300Z,4.50
2017-11-18T12:47:48.252Z,5.50
2017-11-18T12:48:48.500Z,3.80
2017-11-18T12:49:49.028Z,3.70
2017-11-18T12:50:48.898Z,5.20
2017-11-18T12:51:48.850Z,4.60
2017-11-18T12:52:48.790Z,4.80
2017-11-18T12:53:48.028Z,3.90
2017-11-18T12:54:49.035Z,3.90
2017-11-18T12:55:49.317Z,4.10
2017-11-18T12:56:48.816Z,4.20
2017-11-18T12:57:48.832Z,5.00
2017-11-18T12:58:48.521Z,4.10
2017-11-18T12:59:48.770Z,3.40
2017-11-18T13:00:48.444Z,3.90
2017-11-18T13:01:48.266Z,3.90
2017-11-18T13:02:48.965Z,3.90
2017-11-18T13:03:48.673Z,4.10
2017-11-18T13:04:47.814Z,5.30
2017-11-18T13:05:48.461Z,4.40
2017-11-18T13:06:48.427Z,4.20
2017-11-18T13:07:48.378Z,4.90
2017-11-18T13:08:48.162Z,5.20
2017-11-18T13:09:48.697Z,4.50
2017-11-18T13:10:49.188Z,4.60
2017-11-18T13:12:32.009Z,5.20
2017-11-18T13:13:37.490Z,6.20
2017-11-18T13:14:26.217Z,6.60
2017-11-18T13:15:21.027Z,5.60
2017-11-18T13:16:21.669Z,7.30
2017-11-18T13:17:24.018Z,7.90
2017-11-18T13:18:21.794Z,8.20
2017-11-18T13:19:21.424Z,9.00
2017-11-18T13:20:20.781Z,8.90